Time;durP1;ratioP1;P1;durP2;ratioP2;P2;SDS_P1;SDS_P2;PMS_P1;PMS_P2;Temp;Humidity;BMP_temperature;BMP_pressure;BME280_temperature;BME280_humidity;BME280_pressure;Samples;Min_cycle;Max_cycle;Signal;HPM_P1;HPM_P2
2023/01/21 00:01:56;;;;;;;26.43;13.47;;;;;;;1.63;100.00;100252.03;12210292;19;20003;-80
2023/01/21 00:05:57;;;;;;;28.27;14.98;;;;;;;1.65;100.00;100260.88;12185900;19;20007;-81
2023/01/21 00:09:59;;;;;;;27.65;13.00;;;;;;;1.62;100.00;100263.94;12208735;19;20439;-81
2023/01/21 00:14:01;;;;;;;26.02;13.35;;;;;;;1.59;100.00;100267.03;12211814;19;20797;-80
2023/01/21 00:18:02;;;;;;;29.38;13.32;;;;;;;1.57;100.00;100271.78;12184208;19;20035;-81
2023/01/21 00:22:04;;;;;;;30.45;13.48;;;;;;;1.57;100.00;100272.63;12205879;19;20024;-79
2023/01/21 00:26:12;;;;;;;25.48;12.20;;;;;;;1.53;100.00;100278.63;12185178;19;20018;-80
2023/01/21 00:30:13;;;;;;;28.83;12.77;;;;;;;1.52;100.00;100285.91;12211160;19;20099;-79
2023/01/21 00:34:16;;;;;;;27.58;13.45;;;;;;;1.49;100.00;100291.72;12241913;19;20011;-78
2023/01/21 00:38:17;;;;;;;31.77;13.10;;;;;;;1.47;100.00;100287.47;12186535;19;20014;-80
2023/01/21 00:42:19;;;;;;;33.35;15.18;;;;;;;1.44;100.00;100293.28;12209781;19;20002;-81
2023/01/21 00:46:21;;;;;;;32.40;13.98;;;;;;;1.45;100.00;100300.38;12209395;19;20010;-80
2023/01/21 00:50:22;;;;;;;30.08;14.50;;;;;;;1.38;100.00;100307.56;12184740;19;20020;-81
2023/01/21 00:54:24;;;;;;;31.52;15.25;;;;;;;1.36;100.00;100308.56;12207359;19;20081;-80
2023/01/21 00:58:26;;;;;;;35.43;14.60;;;;;;;1.38;100.00;100313.84;12206062;19;20007;-81
2023/01/21 01:02:28;;;;;;;41.22;17.15;;;;;;;1.35;100.00;100323.19;12187079;19;20033;-80
2023/01/21 01:06:30;;;;;;;32.88;15.55;;;;;;;1.35;100.00;100336.75;12208454;19;20027;-79
2023/01/21 01:10:32;;;;;;;36.83;15.88;;;;;;;1.39;100.00;100337.25;12205204;19;20003;-80
2023/01/21 01:14:34;;;;;;;30.92;16.27;;;;;;;1.40;100.00;100343.50;12174761;19;20003;-79
2023/01/21 01:18:38;;;;;;;32.33;15.95;;;;;;;1.43;100.00;100352.19;12194287;19;20434;-80
2023/01/21 01:22:39;;;;;;;38.53;16.20;;;;;;;1.39;100.00;100363.56;12200038;19;20010;-79
2023/01/21 01:26:41;;;;;;;33.33;15.73;;;;;;;1.39;100.00;100363.56;12173141;19;20046;-79
2023/01/21 01:30:42;;;;;;;44.35;17.42;;;;;;;1.36;100.00;100371.03;12198855;19;19998;-80
2023/01/21 01:34:45;;;;;;;38.70;17.52;;;;;;;1.33;100.00;100376.81;12196599;19;20006;-80
2023/01/21 01:38:46;;;;;;;40.03;17.60;;;;;;;1.33;100.00;100379.53;12180249;19;20074;-80
2023/01/21 01:42:48;;;;;;;50.63;18.85;;;;;;;1.38;100.00;100386.31;12198920;19;20027;-80
2023/01/21 01:46:49;;;;;;;35.00;18.83;;;;;;;1.36;100.00;100379.16;12208918;19;19995;-78
2023/01/21 01:50:52;;;;;;;36.78;18.13;;;;;;;1.40;100.00;100389.69;12236732;19;20003;-79
2023/01/21 01:54:56;;;;;;;46.90;18.50;;;;;;;1.35;100.00;100392.94;12228095;19;20044;-82
2023/01/21 01:58:58;;;;;;;41.88;19.55;;;;;;;1.38;100.00;100392.59;12209964;19;19999;-82
2023/01/21 02:07:23;;;;;;;42.67;17.85;;;;;;;1.30;100.00;100409.75;12206660;19;20583;-81
2023/01/21 02:11:25;;;;;;;42.97;18.52;;;;;;;1.24;100.00;100407.72;12183603;19;20034;-80
2023/01/21 02:15:58;;;;;;;39.88;18.15;;;;;;;1.21;100.00;100423.53;12204333;19;20010;-81
2023/01/21 02:20:06;;;;;;;44.72;19.92;;;;;;;1.15;100.00;100419.63;12204750;19;20007;-81
2023/01/21 02:24:32;;;;;;;47.28;20.30;;;;;;;1.10;100.00;100420.16;12182817;19;20010;-80
2023/01/21 02:29:10;;;;;;;44.22;18.75;;;;;;;1.04;100.00;100431.72;12197187;19;20039;-80
2023/01/21 02:33:50;;;;;;;41.83;18.35;;;;;;;1.01;100.00;100440.22;12176745;19;20110;-80
2023/01/21 02:38:16;;;;;;;43.95;19.50;;;;;;;1.03;100.00;100434.59;12202733;19;20027;-79
2023/01/21 02:42:23;;;;;;;42.78;18.98;;;;;;;1.07;100.00;100442.22;12186395;19;20010;-80
2023/01/21 02:46:28;;;;;;;38.25;17.48;;;;;;;1.11;100.00;100445.44;12203200;19;20046;-80
2023/01/21 02:50:35;;;;;;;40.42;18.48;;;;;;;1.07;100.00;100444.94;12187095;19;20015;-80
2023/01/21 02:54:39;;;;;;;36.80;17.02;;;;;;;1.06;100.00;100445.94;12203648;19;20013;-81
2023/01/21 02:58:46;;;;;;;41.40;17.35;;;;;;;1.04;100.00;100455.28;12204511;19;20003;-81
2023/01/21 03:03:19;;;;;;;44.60;16.98;;;;;;;0.92;100.00;100471.06;12184888;19;20007;-80
2023/01/21 03:07:29;;;;;;;34.80;15.35;;;;;;;0.87;100.00;100473.47;12205494;19;20002;-81
2023/01/21 03:11:31;;;;;;;37.08;16.45;;;;;;;0.85;100.00;100470.06;12188519;19;20010;-80
2023/01/21 03:20:29;;;;;;;32.78;14.15;;;;;;;0.76;100.00;100488.22;12224350;19;20264;-79
2023/01/21 03:24:32;;;;;;;31.67;15.40;;;;;;;0.68;100.00;100491.78;12232917;19;20010;-80
2023/01/21 03:28:41;;;;;;;34.50;14.80;;;;;;;0.62;100.00;100491.59;12211508;19;20051;-80
2023/01/21 03:32:48;;;;;;;35.20;15.40;;;;;;;0.56;100.00;100484.97;12188401;19;20030;-80
2023/01/21 03:37:04;;;;;;;29.58;14.05;;;;;;;0.41;100.00;100489.38;12207400;19;20010;-79
2023/01/21 03:41:17;;;;;;;32.67;13.50;;;;;;;0.24;100.00;100499.34;12197818;19;20384;-79
2023/01/21 03:45:42;;;;;;;30.98;12.90;;;;;;;0.11;100.00;100496.25;12221238;19;20010;-79
2023/01/21 03:49:51;;;;;;;29.05;13.05;;;;;;;-0.07;100.00;100502.63;12223249;19;20011;-79
2023/01/21 03:53:57;;;;;;;36.33;14.57;;;;;;;-0.15;100.00;100499.91;12179157;19;20050;-79
2023/01/21 03:57:59;;;;;;;34.95;14.90;;;;;;;-0.20;100.00;100510.38;12202537;19;20339;-79
2023/01/21 04:02:00;;;;;;;34.08;14.68;;;;;;;-0.28;100.00;100510.34;12203340;19;20006;-79
2023/01/21 04:06:02;;;;;;;26.90;12.77;;;;;;;-0.35;100.00;100514.72;12181319;19;20007;-79
2023/01/21 04:10:04;;;;;;;30.13;13.30;;;;;;;-0.39;100.00;100518.75;12202554;19;20006;-79
2023/01/21 04:14:06;;;;;;;33.80;13.48;;;;;;;-0.49;100.00;100519.72;12189379;19;20018;-79
2023/01/21 04:18:08;;;;;;;33.42;14.68;;;;;;;-0.49;100.00;100529.69;12203955;19;20040;-80
2023/01/21 04:22:09;;;;;;;35.20;14.05;;;;;;;-0.54;100.00;100527.47;12205904;19;20011;-80
2023/01/21 04:26:11;;;;;;;38.60;15.00;;;;;;;-0.60;100.00;100533.50;12181679;19;20003;-79
2023/01/21 04:30:12;;;;;;;33.47;13.20;;;;;;;-0.69;100.00;100538.03;12204192;19;20042;-80
2023/01/21 04:34:15;;;;;;;30.63;13.10;;;;;;;-0.79;100.00;100533.75;12203430;19;20650;-80
2023/01/21 04:38:17;;;;;;;31.52;12.82;;;;;;;-0.87;100.00;100530.97;12181379;19;20010;-80
2023/01/21 04:42:18;;;;;;;30.35;12.10;;;;;;;-0.95;100.00;100546.16;12200912;19;20039;-80
2023/01/21 04:46:20;;;;;;;26.70;12.93;;;;;;;-1.03;100.00;100546.09;12201633;19;20007;-80
2023/01/21 04:50:21;;;;;;;33.20;13.23;;;;;;;-1.13;100.00;100553.44;12182637;19;20014;-80
2023/01/21 04:54:23;;;;;;;32.05;12.48;;;;;;;-1.19;100.00;100546.81;12199980;19;20031;-80
2023/01/21 04:58:26;;;;;;;31.45;13.00;;;;;;;-1.23;100.00;100537.28;12201091;19;20517;-80
2023/01/21 05:02:27;;;;;;;;;;;;;;;-1.33;100.00;100546.50;12177400;19;20006;-80
2023/01/21 05:06:29;;;;;;;34.00;11.38;;;;;;;-1.41;100.00;100550.81;12200194;19;20312;-79
2023/01/21 05:10:31;;;;;;;32.95;11.52;;;;;;;-1.47;100.00;100556.00;12198975;19;20006;-79
2023/01/21 05:14:32;;;;;;;29.65;12.00;;;;;;;-1.52;100.00;100555.59;12173763;19;20010;-80
2023/01/21 05:18:37;;;;;;;27.83;12.23;;;;;;;-1.61;100.00;100557.34;12198194;19;20982;-80
2023/01/21 05:22:38;;;;;;;29.00;11.63;;;;;;;-1.69;100.00;100558.13;12199372;19;20143;-79
2023/01/21 05:26:40;;;;;;;27.73;11.85;;;;;;;-1.74;100.00;100560.44;12178823;19;20002;-80
2023/01/21 05:30:42;;;;;;;28.35;10.68;;;;;;;-1.82;100.00;100568.44;12199085;19;20044;-80
2023/01/21 05:34:45;;;;;;;25.73;11.13;;;;;;;-1.93;100.00;100576.78;12203911;19;20024;-79
2023/01/21 05:38:46;;;;;;;28.20;11.38;;;;;;;-1.97;100.00;100576.19;12175585;19;20006;-79
2023/01/21 05:42:48;;;;;;;27.20;10.18;;;;;;;-2.04;100.00;100590.47;12199441;19;20027;-80
2023/01/21 05:46:49;;;;;;;30.50;12.15;;;;;;;-2.11;100.00;100593.78;12199425;19;20038;-80
2023/01/21 05:50:51;;;;;;;27.88;10.95;;;;;;;-2.15;100.00;100596.91;12180819;19;20003;-80
2023/01/21 05:54:53;;;;;;;27.83;12.52;;;;;;;-2.20;100.00;100602.75;12202782;19;20516;-79
2023/01/21 05:59:02;;;;;;;25.23;10.95;;;;;;;-2.23;100.00;100608.47;12200437;19;20007;-80
2023/01/21 06:03:04;;;;;;;27.30;10.88;;;;;;;-2.30;100.00;100613.56;12169882;19;20020;-79
2023/01/21 06:07:05;;;;;;;18.33;7.35;;;;;;;-2.33;100.00;100632.75;12194102;19;20002;-80
2023/01/21 06:11:07;;;;;;;27.50;11.23;;;;;;;-2.26;100.00;100629.47;12181306;19;20373;-80
2023/01/21 06:15:09;;;;;;;22.25;9.98;;;;;;;-2.30;100.00;100623.53;12198141;19;20362;-79
2023/01/21 06:19:11;;;;;;;24.52;10.18;;;;;;;-2.32;100.00;100641.72;12198567;19;20039;-80
2023/01/21 06:23:12;;;;;;;28.75;10.52;;;;;;;-2.36;100.00;100641.16;12172905;19;20360;-80
2023/01/21 06:27:14;;;;;;;26.90;10.88;;;;;;;-2.41;100.00;100646.16;12200946;19;20011;-80
2023/01/21 06:31:16;;;;;;;30.55;12.07;;;;;;;-2.41;100.00;100656.09;12251235;19;20015;-79
2023/01/21 06:35:17;;;;;;;28.67;11.23;;;;;;;-2.42;100.00;100657.09;12212856;19;20014;-81
2023/01/21 06:39:19;;;;;;;31.67;12.13;;;;;;;-2.45;100.00;100655.53;12208063;19;20038;-81
2023/01/21 06:43:20;;;;;;;27.90;10.88;;;;;;;-2.49;100.00;100658.69;12205867;19;20455;-80
2023/01/21 06:47:22;;;;;;;26.25;10.73;;;;;;;-2.54;100.00;100664.50;12182095;19;19998;-81
2023/01/21 06:51:24;;;;;;;30.35;10.90;;;;;;;-2.56;100.00;100667.34;12202852;19;20009;-79
2023/01/21 06:55:25;;;;;;;25.15;10.77;;;;;;;-2.59;100.00;100666.75;12203311;19;20035;-81
2023/01/21 06:59:27;;;;;;;31.10;11.20;;;;;;;-2.62;100.00;100665.22;12187847;19;19999;-80
2023/01/21 07:03:29;;;;;;;30.50;12.13;;;;;;;-2.64;100.00;100675.31;12206658;19;20006;-80
2023/01/21 07:07:30;;;;;;;29.70;11.73;;;;;;;-2.65;100.00;100680.84;12203246;19;20011;-82
2023/01/21 07:11:32;;;;;;;27.40;10.95;;;;;;;-2.69;100.00;100676.72;12178224;19;20019;-81
2023/01/21 07:15:33;;;;;;;24.97;10.43;;;;;;;-2.70;100.00;100685.81;12206092;19;20331;-81
2023/01/21 07:19:35;;;;;;;28.20;10.95;;;;;;;-2.71;100.00;100684.94;12211334;19;20111;-80
2023/01/21 07:23:37;;;;;;;30.40;11.85;;;;;;;-2.68;100.00;100700.84;12188564;19;20010;-81
2023/01/21 07:27:40;;;;;;;29.77;11.57;;;;;;;-2.63;100.00;100701.28;12223875;19;20476;-81
2023/01/21 07:31:41;;;;;;;28.70;10.50;;;;;;;-2.59;100.00;100708.13;12214760;19;20013;-81
2023/01/21 07:35:43;;;;;;;34.78;12.05;;;;;;;-2.63;100.00;100711.22;12188204;19;20831;-81
2023/01/21 07:39:45;;;;;;;33.92;12.15;;;;;;;-2.63;100.00;100712.06;12207180;19;20002;-81
2023/01/21 07:43:47;;;;;;;31.67;11.70;;;;;;;-2.64;100.00;100717.63;12205568;19;20500;-81
2023/01/21 07:47:49;;;;;;;;;;;;;;;-2.59;100.00;100718.03;12185457;19;20029;-82
2023/01/21 07:51:55;;;;;;;46.90;15.85;;;;;;;-2.57;100.00;100718.75;12214246;19;19972;-83
2023/01/21 07:55:57;;;;;;;41.17;15.27;;;;;;;-2.55;100.00;100711.38;12211051;19;20019;-82
2023/01/21 07:59:58;;;;;;;33.53;13.15;;;;;;;-2.52;100.00;100724.59;12192194;19;20002;-81
2023/01/21 08:04:00;;;;;;;38.17;13.82;;;;;;;-2.43;100.00;100723.72;12199568;19;20011;-82
2023/01/21 08:08:01;;;;;;;49.80;20.10;;;;;;;-2.35;100.00;100721.16;12194788;19;20091;-81
2023/01/21 08:12:05;;;;;;;48.23;19.27;;;;;;;-2.24;100.00;100721.97;12185002;19;20039;-81
2023/01/21 08:16:10;;;;;;;67.45;25.20;;;;;;;-2.19;100.00;100723.25;12212771;19;20753;-81
2023/01/21 08:20:12;;;;;;;34.58;14.18;;;;;;;-2.13;100.00;100729.94;12188170;19;20487;-82
2023/01/21 08:24:13;;;;;;;38.67;15.43;;;;;;;-2.06;100.00;100729.19;12207845;19;20063;-83
2023/01/21 08:28:15;;;;;;;41.90;17.83;;;;;;;-1.99;100.00;100742.97;12204985;19;20010;-82
2023/01/21 08:32:17;;;;;;;35.17;14.68;;;;;;;-1.93;100.00;100745.09;12185209;19;20614;-82
2023/01/21 08:36:19;;;;;;;36.00;14.43;;;;;;;-1.71;100.00;100743.03;12209170;19;20002;-82
2023/01/21 08:40:22;;;;;;;42.33;15.80;;;;;;;-1.55;100.00;100745.94;12211971;19;20018;-82
2023/01/21 08:44:24;;;;;;;34.88;14.48;;;;;;;-1.38;100.00;100747.88;12185233;19;20070;-82
2023/01/21 08:48:27;;;;;;;38.83;15.23;;;;;;;-1.17;100.00;100753.03;12210611;19;20010;-81
2023/01/21 08:52:28;;;;;;;;;;;;;;;-1.04;100.00;100754.50;12216722;19;20006;-81
2023/01/21 08:56:30;;;;;;;34.85;12.98;;;;;;;-0.96;100.00;100763.56;12202422;19;19990;-82
2023/01/21 09:00:31;;;;;;;22.90;10.73;;;;;;;-0.89;100.00;100762.97;12222297;19;20070;-82
2023/01/21 09:04:33;;;;;;;36.42;14.73;;;;;;;-0.77;100.00;100759.91;12274429;19;20011;-79
2023/01/21 09:08:35;;;;;;;41.63;16.27;;;;;;;-0.73;100.00;100773.97;12246388;19;21157;-79
2023/01/21 09:12:39;;;;;;;43.63;16.13;;;;;;;-0.71;100.00;100774.69;12232387;19;20010;-79
2023/01/21 09:16:41;;;;;;;36.30;14.57;;;;;;;-0.53;100.00;100772.84;12225182;19;20053;-80
2023/01/21 09:20:42;;;;;;;38.70;14.23;;;;;;;-0.42;100.00;100781.72;12197003;19;20011;-80
2023/01/21 09:24:44;;;;;;;26.00;10.30;;;;;;;-0.37;100.00;100784.81;12219282;19;20433;-79
2023/01/21 09:28:52;;;;;;;31.48;12.48;;;;;;;-0.27;100.00;100785.59;12219466;19;20014;-81
2023/01/21 09:32:54;;;;;;;35.42;13.68;;;;;;;-0.19;100.00;100796.50;12199996;19;20366;-80
2023/01/21 09:36:55;;;;;;;37.30;15.60;;;;;;;-0.16;100.00;100796.19;12227108;19;20389;-81
2023/01/21 09:41:24;;;;;;;33.65;15.32;;;;;;;-0.07;100.00;100797.94;12216026;19;20002;-80
2023/01/21 09:45:25;;;;;;;48.33;22.33;;;;;;;0.03;100.00;100799.72;12191450;19;20006;-80
2023/01/21 09:49:32;;;;;;;37.53;17.45;;;;;;;0.04;100.00;100804.16;12214784;19;20010;-81
2023/01/21 09:54:01;;;;;;;37.05;14.55;;;;;;;0.15;100.00;100812.00;12196124;19;20655;-79
2023/01/21 09:58:07;;;;;;;35.90;18.33;;;;;;;0.14;100.00;100803.03;12209511;19;20047;-81
2023/01/21 10:02:28;;;;;;;34.63;14.48;;;;;;;0.26;100.00;100802.78;12192965;19;20346;-80
2023/01/21 10:06:42;;;;;;;33.38;13.25;;;;;;;0.50;100.00;100807.50;12202419;19;20014;-79
2023/01/21 10:11:20;;;;;;;27.63;12.70;;;;;;;0.58;100.00;100813.00;12208465;19;20011;-80
2023/01/21 10:15:22;;;;;;;22.25;10.85;;;;;;;0.61;100.00;100809.97;12186214;19;20026;-80
2023/01/21 10:19:34;;;;;;;31.75;11.88;;;;;;;0.67;100.00;100820.16;12210786;19;20021;-80
2023/01/21 10:23:43;;;;;;;34.40;13.23;;;;;;;0.69;100.00;100812.72;12189645;19;20012;-80
2023/01/21 10:27:45;;;;;;;26.05;12.43;;;;;;;0.91;100.00;100812.13;12214403;19;20110;-81
2023/01/21 10:31:53;;;;;;;27.43;13.13;;;;;;;0.95;100.00;100807.22;12214383;19;20002;-81
2023/01/21 10:36:10;;;;;;;26.33;13.73;;;;;;;0.84;100.00;100807.53;12191738;19;20033;-79
2023/01/21 10:40:42;;;;;;;26.25;12.55;;;;;;;1.04;100.00;100805.41;12211213;19;20022;-81
2023/01/21 10:45:02;;;;;;;27.17;11.30;;;;;;;1.36;100.00;100810.09;12191336;19;20097;-80
2023/01/21 10:49:28;;;;;;;23.48;9.85;;;;;;;1.48;100.00;100811.47;12207500;19;20003;-81
2023/01/21 10:53:36;;;;;;;25.58;11.82;;;;;;;1.65;100.00;100820.53;12196900;19;20010;-79
2023/01/21 10:57:54;;;;;;;25.05;11.57;;;;;;;1.97;100.00;100814.28;12218436;19;20010;-80
2023/01/21 11:02:07;;;;;;;27.05;11.95;;;;;;;1.74;100.00;100811.38;12219954;19;20011;-80
2023/01/21 11:06:12;;;;;;;21.17;10.95;;;;;;;1.72;100.00;100815.25;12200284;19;20013;-80
2023/01/21 11:10:21;;;;;;;19.10;9.60;;;;;;;1.54;100.00;100821.69;12221081;19;20519;-80
2023/01/21 11:14:27;;;;;;;21.50;9.48;;;;;;;1.55;100.00;100822.56;12214983;19;20032;-79
2023/01/21 11:18:41;;;;;;;24.83;9.82;;;;;;;1.51;100.00;100823.88;12278090;19;19998;-79
2023/01/21 11:22:44;;;;;;;21.05;10.00;;;;;;;1.27;100.00;100822.78;12246088;19;20037;-80
2023/01/21 11:26:51;;;;;;;23.35;9.38;;;;;;;1.25;100.00;100823.97;12203413;19;20018;-82
2023/01/21 11:31:23;;;;;;;26.73;10.65;;;;;;;1.23;100.00;100820.59;12227569;19;20563;-80
2023/01/21 11:35:25;;;;;;;25.58;9.35;;;;;;;1.01;100.00;100813.88;12206330;19;20027;-80
2023/01/21 11:39:30;;;;;;;23.05;10.00;;;;;;;1.10;100.00;100815.59;12228483;19;20047;-81
2023/01/21 11:43:53;;;;;;;20.08;9.02;;;;;;;1.23;100.00;100815.16;12227073;19;20066;-80
2023/01/21 11:47:55;;;;;;;20.30;9.00;;;;;;;1.29;100.00;100822.66;12212509;19;20006;-81
2023/01/21 11:52:18;;;;;;;26.30;11.32;;;;;;;1.22;100.00;100816.16;12238824;19;20042;-81
2023/01/21 11:56:19;;;;;;;24.63;10.32;;;;;;;1.09;100.00;100820.19;12213331;19;20422;-79
2023/01/21 12:00:23;;;;;;;49.08;18.95;;;;;;;1.02;100.00;100810.16;12222370;19;20515;-80
2023/01/21 12:04:25;;;;;;;25.17;11.75;;;;;;;1.16;100.00;100814.97;12225016;19;20118;-80
2023/01/21 12:08:33;;;;;;;35.35;14.20;;;;;;;1.24;100.00;100816.84;12201719;19;20480;-81
2023/01/21 12:12:51;;;;;;;27.27;12.90;;;;;;;1.43;100.00;100813.88;12222916;19;19998;-81
2023/01/21 12:17:08;;;;;;;50.33;19.73;;;;;;;1.48;100.00;100807.91;12217591;19;19999;-81
2023/01/21 12:21:10;;;;;;;52.63;23.33;;;;;;;1.55;100.00;100807.09;12201477;19;20495;-80
2023/01/21 12:25:20;;;;;;;40.55;20.75;;;;;;;1.61;100.00;100805.59;12217428;19;20014;-80
2023/01/21 12:29:24;;;;;;;30.75;13.68;;;;;;;1.69;100.00;100811.00;12197599;19;20034;-80
2023/01/21 12:33:28;;;;;;;29.23;12.57;;;;;;;1.64;100.00;100809.84;12222526;19;20014;-81
2023/01/21 12:37:38;;;;;;;22.90;10.18;;;;;;;1.60;100.00;100806.59;12219808;19;20006;-82
2023/01/21 12:41:45;;;;;;;23.67;9.85;;;;;;;1.56;100.00;100802.50;12192599;19;20070;-80
2023/01/21 12:46:03;;;;;;;20.58;9.27;;;;;;;1.68;100.00;100795.75;12215446;19;20019;-80
2023/01/21 12:50:13;;;;;;;22.27;9.00;;;;;;;1.68;100.00;100800.31;12222304;19;20011;-81
2023/01/21 12:54:22;;;;;;;20.77;8.18;;;;;;;1.68;100.00;100808.47;12194154;19;20401;-81
2023/01/21 12:58:29;;;;;;;19.35;8.98;;;;;;;1.66;100.00;100805.91;12217126;19;20426;-83
2023/01/21 13:02:38;;;;;;;17.77;8.88;;;;;;;1.72;100.00;100804.41;12190478;19;20003;-83
2023/01/21 13:06:46;;;;;;;19.10;8.43;;;;;;;1.74;100.00;100807.81;12210348;19;20002;-82
2023/01/21 13:11:02;;;;;;;20.45;9.68;;;;;;;1.61;100.00;100816.44;12207764;19;20011;-80
2023/01/21 13:15:15;;;;;;;22.38;11.25;;;;;;;1.75;100.00;100815.78;12187177;19;20007;-80
2023/01/21 13:19:16;;;;;;;53.47;24.10;;;;;;;1.69;100.00;100818.31;12225896;19;20985;-79
2023/01/21 13:23:47;;;;;;;30.83;12.52;;;;;;;1.52;100.00;100818.31;12225217;19;20048;-81
2023/01/21 13:27:49;;;;;;;18.70;9.82;;;;;;;1.63;100.00;100830.69;12212944;19;20077;-82
2023/01/21 13:31:58;;;;;;;20.98;10.32;;;;;;;1.68;100.00;100825.63;12217130;19;20018;-82
2023/01/21 13:36:16;;;;;;;16.38;8.20;;;;;;;1.88;100.00;100817.16;12192140;19;20010;-82
2023/01/21 13:40:32;;;;;;;15.55;7.25;;;;;;;2.03;100.00;100819.03;12209732;19;20017;-81
2023/01/21 13:45:04;;;;;;;13.68;7.32;;;;;;;2.14;100.00;100822.41;12186702;19;20011;-81
2023/01/21 13:49:36;;;;;;;16.00;7.25;;;;;;;2.26;100.00;100829.22;12206084;19;20465;-82
2023/01/21 13:53:50;;;;;;;13.50;6.63;;;;;;;2.20;100.00;100819.03;12183946;19;20014;-81
2023/01/21 13:58:15;;;;;;;13.55;6.68;;;;;;;2.07;100.00;100818.69;12204529;19;20078;-82
2023/01/21 14:02:39;;;;;;;15.45;7.13;;;;;;;1.98;100.00;100826.00;12185429;19;20006;-81
2023/01/21 14:06:52;;;;;;;14.30;7.07;;;;;;;1.90;100.00;100824.09;12204903;19;20011;-81
2023/01/21 14:11:15;;;;;;;16.85;7.45;;;;;;;1.85;100.00;100820.22;12202473;19;20014;-83
2023/01/21 14:15:32;;;;;;;14.75;7.70;;;;;;;1.95;100.00;100829.06;12181827;19;20007;-82
2023/01/21 14:20:02;;;;;;;16.50;7.28;;;;;;;1.69;100.00;100826.47;12201200;19;20007;-82
2023/01/21 14:24:14;;;;;;;13.75;5.75;;;;;;;1.66;100.00;100824.94;12181905;19;20010;-83
2023/01/21 14:28:33;;;;;;;17.02;6.40;;;;;;;1.69;100.00;100821.88;12203913;19;20006;-81
2023/01/21 14:33:07;;;;;;;14.43;6.90;;;;;;;1.65;100.00;100827.84;12203657;19;20023;-79
2023/01/21 14:37:15;;;;;;;17.70;7.65;;;;;;;1.72;100.00;100831.56;12252743;19;20003;-79
2023/01/21 14:41:17;;;;;;;17.27;7.95;;;;;;;1.73;100.00;100828.69;12213728;19;20044;-80
2023/01/21 14:45:23;;;;;;;12.70;6.03;;;;;;;1.70;100.00;100831.75;12196899;19;20057;-83
2023/01/21 14:49:39;;;;;;;13.32;7.03;;;;;;;1.76;100.00;100831.09;12199370;19;20125;-82
2023/01/21 14:54:23;;;;;;;15.15;6.82;;;;;;;1.82;100.00;100844.00;12179875;19;20010;-82
2023/01/21 14:58:27;;;;;;;13.48;7.00;;;;;;;1.82;100.00;100835.84;12201597;19;20007;-83
2023/01/21 15:02:33;;;;;;;14.15;6.10;;;;;;;1.80;100.00;100835.16;12178144;19;20071;-83
2023/01/21 15:06:37;;;;;;;15.40;7.15;;;;;;;1.73;100.00;100827.84;12202310;19;20402;-83
2023/01/21 15:10:40;;;;;;;16.23;6.97;;;;;;;1.72;100.00;100823.41;12194174;19;20006;-80
2023/01/21 15:14:44;;;;;;;16.85;7.53;;;;;;;1.67;100.00;100829.38;12178570;19;20549;-83
2023/01/21 15:19:13;;;;;;;17.17;6.97;;;;;;;1.62;100.00;100833.59;12190234;19;20011;-82
2023/01/21 15:23:29;;;;;;;17.13;7.47;;;;;;;1.53;100.00;100827.28;12167086;19;19999;-82
2023/01/21 15:27:31;;;;;;;14.00;7.07;;;;;;;1.46;100.00;100834.38;12187577;19;20035;-84
2023/01/21 15:31:43;;;;;;;14.50;6.75;;;;;;;1.40;100.00;100837.78;12187399;19;20003;-80
2023/01/21 15:35:45;;;;;;;18.65;8.45;;;;;;;1.40;100.00;100835.06;12171128;19;20018;-83
2023/01/21 15:39:51;;;;;;;12.48;6.57;;;;;;;1.40;100.00;100840.47;12198354;19;20495;-83
2023/01/21 15:44:33;;;;;;;68.03;22.52;;;;;;;1.40;100.00;100837.78;12200188;19;20019;-82
2023/01/21 15:49:07;;;;;;;26.27;11.73;;;;;;;1.36;100.00;100837.25;12183364;19;20010;-81
2023/01/21 15:53:37;;;;;;;18.02;8.07;;;;;;;1.24;100.00;100834.00;12181596;19;20030;-79
2023/01/21 15:58:02;;;;;;;16.92;7.47;;;;;;;1.19;100.00;100836.38;12209000;19;20114;-85
2023/01/21 16:02:26;;;;;;;13.55;6.70;;;;;;;1.11;100.00;100847.19;12265106;19;20009;-80
2023/01/21 16:06:53;;;;;;;19.08;7.47;;;;;;;1.08;100.00;100844.78;12226346;19;20094;-81
2023/01/21 16:11:27;;;;;;;12.15;6.05;;;;;;;1.02;100.00;100850.88;12214913;19;20006;-83
2023/01/21 16:15:41;;;;;;;17.75;7.03;;;;;;;1.01;100.00;100860.00;12184118;19;20035;-82
2023/01/21 16:19:48;;;;;;;33.75;12.63;;;;;;;0.96;100.00;100859.66;12207560;19;20091;-83
2023/01/21 16:23:54;;;;;;;24.92;11.27;;;;;;;1.02;100.00;100859.03;12180668;19;20066;-81
2023/01/21 16:27:56;;;;;;;23.38;10.05;;;;;;;0.96;100.00;100857.81;12213172;19;20010;-83
2023/01/21 16:31:58;;;;;;;24.67;11.07;;;;;;;0.97;100.00;100858.66;12212475;19;20002;-83
2023/01/21 16:36:05;;;;;;;25.33;13.13;;;;;;;0.98;100.00;100861.22;12221548;19;20126;-83
2023/01/21 16:40:07;;;;;;;32.35;13.95;;;;;;;0.87;100.00;100859.63;12215057;19;20011;-82
2023/01/21 16:44:15;;;;;;;32.25;15.02;;;;;;;0.79;100.00;100856.84;12201718;19;20010;-81
2023/01/21 16:48:21;;;;;;;25.80;11.18;;;;;;;0.81;100.00;100851.28;12222066;19;20798;-84
2023/01/21 16:52:23;;;;;;;25.25;10.98;;;;;;;0.77;100.00;100856.16;12222698;19;20029;-81
2023/01/21 16:56:28;;;;;;;29.70;12.23;;;;;;;0.68;100.00;100854.41;12192695;19;20006;-83
2023/01/21 17:00:31;;;;;;;19.27;9.75;;;;;;;0.68;100.00;100854.41;12212128;19;20007;-82
2023/01/21 17:04:33;;;;;;;;;;;;;;;0.64;100.00;100863.88;12212096;19;20011;-84
2023/01/21 17:08:36;;;;;;;17.23;5.80;;;;;;;0.57;100.00;100862.84;12193914;19;20333;-81
2023/01/21 17:12:38;;;;;;;14.60;5.78;;;;;;;0.56;100.00;100866.53;12220862;19;20015;-83
2023/01/21 17:16:40;;;;;;;9.75;4.53;;;;;;;0.58;100.00;100867.22;12204497;19;21376;-83
2023/01/21 17:20:44;;;;;;;10.80;5.70;;;;;;;0.60;100.00;100857.94;12180814;19;20002;-83
2023/01/21 17:25:19;;;;;;;13.80;5.95;;;;;;;0.63;100.00;100862.19;12203182;19;20006;-80
2023/01/21 17:29:27;;;;;;;14.90;6.72;;;;;;;0.63;100.00;100862.19;12189581;19;20101;-83
2023/01/21 17:33:29;;;;;;;16.55;7.45;;;;;;;0.64;100.00;100872.03;12208925;19;20079;-79
2023/01/21 17:38:02;;;;;;;18.92;9.23;;;;;;;0.62;100.00;100872.16;12214607;19;20015;-82
2023/01/21 17:42:03;;;;;;;22.83;8.40;;;;;;;0.63;100.00;100879.31;12194921;19;20010;-80
2023/01/21 17:46:05;;;;;;;16.00;6.80;;;;;;;0.64;100.00;100880.16;12225770;19;20715;-81
2023/01/21 17:50:19;;;;;;;16.50;7.57;;;;;;;0.61;100.00;100886.75;12207606;19;20031;-82
2023/01/21 17:54:24;;;;;;;13.07;6.68;;;;;;;0.60;100.00;100890.47;12188458;19;20403;-80
2023/01/21 17:58:48;;;;;;;12.18;6.03;;;;;;;0.54;100.00;100884.84;12212727;19;21211;-80
2023/01/21 18:02:50;;;;;;;13.90;6.70;;;;;;;0.58;100.00;100878.94;12186434;19;20014;-80
2023/01/21 18:06:53;;;;;;;17.77;7.25;;;;;;;0.61;100.00;100884.03;12194611;19;20014;-80
2023/01/21 18:10:55;;;;;;;14.93;6.20;;;;;;;0.62;100.00;100887.59;12183273;19;20013;-81
2023/01/21 18:14:57;;;;;;;13.25;6.93;;;;;;;0.68;100.00;100882.41;12168504;19;20034;-80
2023/01/21 18:18:59;;;;;;;12.60;6.30;;;;;;;0.62;100.00;100874.03;12193606;19;20472;-80
2023/01/21 18:23:01;;;;;;;16.27;7.15;;;;;;;0.64;100.00;100875.56;12193437;19;20054;-80
2023/01/21 18:27:02;;;;;;;16.83;6.55;;;;;;;0.65;100.00;100876.44;12174903;19;21276;-81
2023/01/21 18:31:04;;;;;;;13.20;6.90;;;;;;;0.67;100.00;100887.97;12220208;19;20011;-82
2023/01/21 18:35:07;;;;;;;16.07;7.60;;;;;;;0.67;100.00;100880.69;12198410;19;20007;-80
2023/01/21 18:39:10;;;;;;;159.32;47.33;;;;;;;0.75;100.00;100882.63;12187238;19;20070;-81
2023/01/21 18:43:12;;;;;;;197.55;64.43;;;;;;;0.78;100.00;100885.00;12193088;19;20045;-80